Time;durP1;ratioP1;P1;durP2;ratioP2;P2;SDS_P1;SDS_P2;PMS_P1;PMS_P2;Temp;Humidity;BMP_temperature;BMP_pressure;BME280_temperature;BME280_humidity;BME280_pressure;Samples;Min_cycle;Max_cycle;Signal;HPM_P1;HPM_P2
2023/10/02 00:01:57;;;;;;;9.55;7.03;;;;;;;;;;5004776;28;20077;-62
2023/10/02 00:04:24;;;;;;;9.07;7.07;;;;;;;;;;5006517;28;20026;-62
2023/10/02 00:06:51;;;;;;;10.05;6.97;;;;;;;;;;5006622;28;20099;-61
2023/10/02 00:09:20;;;;;;;10.98;6.82;;;;;;;;;;5007000;28;20080;-61
2023/10/02 00:11:46;;;;;;;9.00;6.53;;;;;;;;;;5006725;28;20037;-61
2023/10/02 00:14:18;;;;;;;8.85;6.25;;;;;;;;;;4992877;28;20034;-61
2023/10/02 00:16:43;;;;;;;9.55;6.15;;;;;;;;;;5001021;28;20145;-62
2023/10/02 00:19:18;;;;;;;7.95;6.00;;;;;;;;;;5002423;28;20538;-62
2023/10/02 00:21:45;;;;;;;8.30;6.22;;;;;;;;;;4997514;28;20378;-61
2023/10/02 00:24:12;;;;;;;11.60;6.55;;;;;;;;;;5006050;28;20044;-62
2023/10/02 00:26:38;;;;;;;7.18;5.45;;;;;;;;;;5005337;28;20080;-63
2023/10/02 00:29:06;;;;;;;8.52;5.50;;;;;;;;;;5006002;28;20038;-61
2023/10/02 00:31:36;;;;;;;7.65;5.38;;;;;;;;;;5004111;28;21105;-59
2023/10/02 00:34:01;;;;;;;;;;;;;;;;;;4993275;28;20110;-62
2023/10/02 00:36:29;;;;;;;8.88;5.50;;;;;;;;;;4999204;28;20402;-59
2023/10/02 00:38:58;;;;;;;7.40;5.53;;;;;;;;;;5019867;28;20569;-62
2023/10/02 00:41:24;;;;;;;8.10;5.22;;;;;;;;;;5021171;28;20075;-61
2023/10/02 00:43:49;;;;;;;8.10;5.28;;;;;;;;;;5001080;28;20148;-61
2023/10/02 00:46:23;;;;;;;8.27;4.80;;;;;;;;;;5006195;28;20536;-60
2023/10/02 00:48:49;;;;;;;7.70;4.80;;;;;;;;;;4998855;28;20063;-60
2023/10/02 00:51:14;;;;;;;9.13;5.32;;;;;;;;;;5006585;28;20562;-63
2023/10/02 00:53:46;;;;;;;6.63;4.80;;;;;;;;;;5005330;28;20045;-61
2023/10/02 00:56:21;;;;;;;7.35;4.78;;;;;;;;;;5020942;28;20289;-63
2023/10/02 00:58:58;;;;;;;6.53;4.70;;;;;;;;;;5005810;28;20033;-60
2023/10/02 01:01:27;;;;;;;7.00;4.72;;;;;;;;;;5003783;28;20069;-63
2023/10/02 01:04:11;;;;;;;9.15;4.65;;;;;;;;;;4999508;28;20088;-60
2023/10/02 01:06:54;;;;;;;7.50;4.72;;;;;;;;;;5001096;28;20129;-60
2023/10/02 01:09:20;;;;;;;8.25;4.72;;;;;;;;;;5000776;28;20057;-61
2023/10/02 01:11:45;;;;;;;7.10;4.57;;;;;;;;;;5019961;28;20482;-62
2023/10/02 01:14:11;;;;;;;6.65;4.32;;;;;;;;;;5005526;28;20103;-64
2023/10/02 01:16:36;;;;;;;8.32;4.78;;;;;;;;;;5017203;28;20125;-61
2023/10/02 01:19:06;;;;;;;6.57;4.57;;;;;;;;;;5019651;28;20026;-61
2023/10/02 01:21:32;;;;;;;6.97;4.45;;;;;;;;;;5005799;28;20312;-60
2023/10/02 01:24:16;;;;;;;6.68;4.57;;;;;;;;;;4994571;28;20572;-60
2023/10/02 01:26:42;;;;;;;6.60;4.25;;;;;;;;;;4989488;28;20037;-61
2023/10/02 01:29:13;;;;;;;6.70;4.25;;;;;;;;;;5021057;28;20038;-59
2023/10/02 01:31:45;;;;;;;6.55;4.68;;;;;;;;;;5005699;28;20823;-62
2023/10/02 01:34:25;;;;;;;5.65;3.72;;;;;;;;;;5011886;28;20441;-62
2023/10/02 01:36:51;;;;;;;7.00;4.40;;;;;;;;;;4996561;28;20070;-63
2023/10/02 01:39:17;;;;;;;7.65;4.63;;;;;;;;;;5020640;28;20466;-60
2023/10/02 01:41:48;;;;;;;7.35;4.15;;;;;;;;;;5008248;28;20056;-60
2023/10/02 01:44:14;;;;;;;6.82;4.25;;;;;;;;;;5009110;28;20136;-61
2023/10/02 01:46:49;;;;;;;8.38;4.70;;;;;;;;;;5020531;28;20112;-63
2023/10/02 01:49:24;;;;;;;6.65;3.78;;;;;;;;;;5015062;28;20450;-61
2023/10/02 01:51:50;;;;;;;7.20;4.25;;;;;;;;;;5005923;28;20541;-61
2023/10/02 01:54:19;;;;;;;7.32;4.15;;;;;;;;;;5003023;28;20033;-63
2023/10/02 01:56:45;;;;;;;7.95;4.40;;;;;;;;;;5019632;28;20057;-61
2023/10/02 01:59:11;;;;;;;5.88;3.97;;;;;;;;;;5005195;28;20421;-61
2023/10/02 02:01:46;;;;;;;5.97;4.00;;;;;;;;;;4997744;28;20129;-62
2023/10/02 02:04:14;;;;;;;6.32;4.38;;;;;;;;;;5016320;28;20057;-61
2023/10/02 02:06:51;;;;;;;6.93;4.10;;;;;;;;;;5003508;28;20038;-61
2023/10/02 02:09:23;;;;;;;6.68;4.03;;;;;;;;;;4995542;28;20042;-61
2023/10/02 02:12:05;;;;;;;6.03;3.75;;;;;;;;;;5020527;28;20111;-62
2023/10/02 02:14:31;;;;;;;8.18;4.57;;;;;;;;;;5004040;28;20029;-60
2023/10/02 02:16:57;;;;;;;7.00;4.20;;;;;;;;;;5021531;28;20022;-63
2023/10/02 02:19:23;;;;;;;7.43;3.75;;;;;;;;;;5009486;28;20029;-63
2023/10/02 02:21:49;;;;;;;5.85;4.13;;;;;;;;;;5009002;28;20541;-60
2023/10/02 02:24:14;;;;;;;5.90;4.10;;;;;;;;;;5000042;28;20125;-61
2023/10/02 02:26:39;;;;;;;6.75;4.13;;;;;;;;;;5005360;28;20030;-61
2023/10/02 02:29:05;;;;;;;6.72;4.43;;;;;;;;;;5008696;28;20034;-60
2023/10/02 02:31:30;;;;;;;7.47;3.97;;;;;;;;;;5009111;28;20030;-61
2023/10/02 02:33:58;;;;;;;7.65;4.13;;;;;;;;;;5001755;28;20410;-60
2023/10/02 02:36:25;;;;;;;6.82;4.05;;;;;;;;;;5008578;28;20036;-61
2023/10/02 02:39:05;;;;;;;4.97;3.30;;;;;;;;;;5009175;28;20062;-60
2023/10/02 02:41:30;;;;;;;7.32;4.15;;;;;;;;;;5019857;28;20807;-62
2023/10/02 02:43:55;;;;;;;6.95;4.32;;;;;;;;;;4996828;28;20038;-61
2023/10/02 02:46:20;;;;;;;9.07;3.93;;;;;;;;;;5022592;28;20413;-60
2023/10/02 02:48:47;;;;;;;6.40;3.63;;;;;;;;;;5009346;28;20354;-61
2023/10/02 02:51:15;;;;;;;7.38;3.80;;;;;;;;;;5008657;28;20637;-61
2023/10/02 02:53:40;;;;;;;7.07;4.00;;;;;;;;;;5008578;28;20079;-60
2023/10/02 02:56:16;;;;;;;6.70;3.67;;;;;;;;;;4990265;28;20042;-60
2023/10/02 02:58:44;;;;;;;7.00;4.20;;;;;;;;;;5002914;28;20041;-60
2023/10/02 03:01:15;;;;;;;8.98;4.70;;;;;;;;;;5023314;28;20034;-60
2023/10/02 03:03:42;;;;;;;7.32;4.30;;;;;;;;;;5018329;28;20712;-61
2023/10/02 03:06:14;;;;;;;5.25;3.65;;;;;;;;;;5008128;28;20513;-61
2023/10/02 03:08:40;;;;;;;5.90;3.42;;;;;;;;;;5023954;28;20088;-62
2023/10/02 03:11:10;;;;;;;8.75;3.92;;;;;;;;;;5008250;28;20332;-60
2023/10/02 03:13:35;;;;;;;6.80;3.80;;;;;;;;;;5008085;28;20034;-62
2023/10/02 03:16:10;;;;;;;7.30;3.75;;;;;;;;;;5007365;28;20033;-63
2023/10/02 03:18:43;;;;;;;7.03;3.78;;;;;;;;;;5006693;28;20103;-64
2023/10/02 03:21:16;;;;;;;8.02;3.72;;;;;;;;;;4989153;28;20034;-62
2023/10/02 03:23:44;;;;;;;5.22;3.50;;;;;;;;;;5016989;28;20037;-61
2023/10/02 03:26:26;;;;;;;7.75;3.20;;;;;;;;;;5004339;28;20030;-61
2023/10/02 03:29:00;;;;;;;8.48;3.40;;;;;;;;;;5003999;28;20496;-61
2023/10/02 03:31:34;;;;;;;5.05;3.28;;;;;;;;;;5022855;28;20034;-60
2023/10/02 03:34:00;;;;;;;6.90;3.40;;;;;;;;;;5010942;28;20038;-60
2023/10/02 03:36:27;;;;;;;6.25;3.70;;;;;;;;;;4980561;28;20185;-61
2023/10/02 03:38:55;;;;;;;6.32;3.70;;;;;;;;;;4989167;28;20160;-60
2023/10/02 03:41:20;;;;;;;6.03;3.47;;;;;;;;;;5006178;28;20052;-60
2023/10/02 03:43:46;;;;;;;5.43;3.47;;;;;;;;;;5006765;28;20466;-64
2023/10/02 03:46:22;;;;;;;6.03;3.30;;;;;;;;;;5000176;28;20398;-61
2023/10/02 03:48:51;;;;;;;5.90;3.30;;;;;;;;;;5003573;28;20026;-64
2023/10/02 03:51:35;;;;;;;7.57;3.92;;;;;;;;;;5022894;28;20608;-60
2023/10/02 03:54:17;;;;;;;8.85;3.90;;;;;;;;;;5001288;28;20030;-62
2023/10/02 03:56:47;;;;;;;6.03;3.33;;;;;;;;;;4991767;28;20121;-62
2023/10/02 03:59:13;;;;;;;8.25;3.42;;;;;;;;;;4998372;28;20026;-62
2023/10/02 04:01:40;;;;;;;7.25;3.35;;;;;;;;;;5005389;28;20057;-62
2023/10/02 04:04:32;;;;;;;7.50;3.78;;;;;;;;;;5005409;28;20399;-62
2023/10/02 04:06:53;;;;;;;8.05;3.05;;;;;;;;;;4995275;28;20045;-61
2023/10/02 04:11:46;;;;;;;8.85;3.28;;;;;;;;;;5007199;28;20038;-60
2023/10/02 04:14:18;;;;;;;7.90;3.40;;;;;;;;;;5000143;28;20424;-60
2023/10/02 04:16:46;;;;;;;7.72;3.05;;;;;;;;;;4991543;28;20038;-63
2023/10/02 04:19:24;;;;;;;5.57;3.50;;;;;;;;;;5004763;28;20030;-61
2023/10/02 04:21:53;;;;;;;6.63;2.95;;;;;;;;;;5006371;28;20046;-61
2023/10/02 04:24:23;;;;;;;5.78;3.00;;;;;;;;;;5005918;28;20030;-59
2023/10/02 04:26:53;;;;;;;6.53;2.80;;;;;;;;;;4998572;28;20038;-61
2023/10/02 04:34:36;;;;;;;6.80;2.88;;;;;;;;;;5004954;28;20121;-64
2023/10/02 04:37:19;;;;;;;9.07;3.08;;;;;;;;;;5002493;28;21492;-60
2023/10/02 04:42:25;;;;;;;6.60;2.85;;;;;;;;;;5004386;28;20042;-63
2023/10/02 04:44:56;;;;;;;9.80;3.17;;;;;;;;;;5007539;28;20032;-64
2023/10/02 04:47:22;;;;;;;7.53;2.85;;;;;;;;;;4991189;28;20125;-61
2023/10/02 04:52:53;;;;;;;14.45;3.22;;;;;;;;;;5008770;28;20738;-64
2023/10/02 04:55:15;;;;;;;8.30;3.05;;;;;;;;;;5004957;28;20028;-62
2023/10/02 04:57:50;;;;;;;9.88;2.97;;;;;;;;;;5003198;28;20486;-59
2023/10/02 05:00:27;;;;;;;8.13;2.83;;;;;;;;;;4990073;28;20416;-70
2023/10/02 05:03:09;;;;;;;8.13;3.08;;;;;;;;;;4990352;28;20035;-59
2023/10/02 05:05:37;;;;;;;6.22;2.88;;;;;;;;;;4988826;28;20049;-61
2023/10/02 05:08:02;;;;;;;7.75;3.03;;;;;;;;;;4989796;28;20030;-63
2023/10/02 05:10:28;;;;;;;7.80;3.45;;;;;;;;;;4988143;28;20403;-62
2023/10/02 05:12:53;;;;;;;7.85;2.92;;;;;;;;;;4987538;28;20086;-63
2023/10/02 05:15:20;;;;;;;7.28;2.97;;;;;;;;;;4989745;28;20039;-63
2023/10/02 05:17:46;;;;;;;7.32;2.97;;;;;;;;;;4992214;28;20101;-63
2023/10/02 05:20:15;;;;;;;6.32;2.78;;;;;;;;;;4983380;28;20110;-63
2023/10/02 05:22:41;;;;;;;6.80;2.50;;;;;;;;;;4986812;28;20539;-62
2023/10/02 05:25:07;;;;;;;7.38;2.72;;;;;;;;;;4991976;28;20034;-62
2023/10/02 05:27:33;;;;;;;5.75;2.70;;;;;;;;;;4991204;28;20043;-60
2023/10/02 05:30:05;;;;;;;8.38;2.55;;;;;;;;;;4986629;28;20507;-60
2023/10/02 05:32:35;;;;;;;8.43;2.83;;;;;;;;;;4971019;28;20457;-59
2023/10/02 05:35:16;;;;;;;5.55;2.60;;;;;;;;;;4987433;28;20022;-61
2023/10/02 05:37:45;;;;;;;5.20;2.03;;;;;;;;;;4988094;28;20038;-61
2023/10/02 05:43:10;;;;;;;8.43;2.55;;;;;;;;;;4988631;28;20121;-63
2023/10/02 05:48:14;;;;;;;5.20;2.35;;;;;;;;;;4991637;28;20424;-59
2023/10/02 05:50:47;;;;;;;7.13;2.90;;;;;;;;;;4993436;28;20049;-61
2023/10/02 05:53:12;;;;;;;6.25;2.25;;;;;;;;;;4984852;28;20036;-62
2023/10/02 05:58:27;;;;;;;6.32;2.58;;;;;;;;;;5000605;28;20125;-61
2023/10/02 06:00:53;;;;;;;5.20;2.45;;;;;;;;;;4990520;28;20173;-60
2023/10/02 06:03:18;;;;;;;7.30;2.70;;;;;;;;;;4990553;28;20573;-59
2023/10/02 06:06:06;;;;;;;5.97;2.63;;;;;;;;;;4991590;28;20046;-61
2023/10/02 06:08:33;;;;;;;4.63;2.30;;;;;;;;;;4982706;28;20288;-61
2023/10/02 06:11:08;;;;;;;5.30;2.60;;;;;;;;;;4975863;28;20050;-64
2023/10/02 06:13:37;;;;;;;6.03;2.83;;;;;;;;;;4976630;28;20133;-60
2023/10/02 06:16:03;;;;;;;7.57;2.70;;;;;;;;;;4957875;28;20372;-63
2023/10/02 06:18:28;;;;;;;7.00;2.85;;;;;;;;;;4977550;28;20054;-61
2023/10/02 06:21:03;;;;;;;9.30;2.37;;;;;;;;;;4973387;28;20117;-60
2023/10/02 06:23:37;;;;;;;7.10;2.70;;;;;;;;;;4958224;28;20391;-64
2023/10/02 06:26:03;;;;;;;8.50;2.75;;;;;;;;;;4971205;28;20061;-59
2023/10/02 06:28:30;;;;;;;8.55;2.88;;;;;;;;;;4956763;28;20477;-60
2023/10/02 06:30:55;;;;;;;6.20;2.63;;;;;;;;;;4969346;28;20475;-60
2023/10/02 06:33:21;;;;;;;7.25;2.45;;;;;;;;;;4954553;28;20042;-62
2023/10/02 06:36:00;;;;;;;4.63;2.30;;;;;;;;;;4966983;28;20042;-61
2023/10/02 06:38:29;;;;;;;7.43;2.40;;;;;;;;;;4955167;28;20073;-61
2023/10/02 06:40:58;;;;;;;5.53;2.55;;;;;;;;;;4968897;28;20047;-59
2023/10/02 06:43:30;;;;;;;5.65;2.60;;;;;;;;;;4965260;28;20062;-64
2023/10/02 06:46:09;;;;;;;8.15;2.20;;;;;;;;;;4954129;28;20134;-61
2023/10/02 06:48:34;;;;;;;6.65;2.20;;;;;;;;;;4965096;28;20046;-59
2023/10/02 06:51:01;;;;;;;7.80;2.60;;;;;;;;;;4974072;28;20522;-59
2023/10/02 06:53:26;;;;;;;7.63;2.70;;;;;;;;;;4970858;28;20492;-59
2023/10/02 06:55:58;;;;;;;7.35;2.70;;;;;;;;;;4973264;28;20057;-59
2023/10/02 06:58:25;;;;;;;5.63;2.40;;;;;;;;;;4973387;28;20095;-60
2023/10/02 07:01:02;;;;;;;8.52;2.70;;;;;;;;;;4981889;28;20094;-59
2023/10/02 07:03:27;;;;;;;6.60;2.50;;;;;;;;;;4978762;28;20093;-61
2023/10/02 07:05:52;;;;;;;4.18;2.42;;;;;;;;;;4986698;28;20038;-60
2023/10/02 07:08:18;;;;;;;5.55;2.38;;;;;;;;;;4986495;28;20035;-58
2023/10/02 07:10:44;;;;;;;5.25;2.33;;;;;;;;;;4979227;28;20558;-60
2023/10/02 07:13:19;;;;;;;6.20;2.60;;;;;;;;;;4978707;28;20046;-58
2023/10/02 07:15:44;;;;;;;5.88;2.50;;;;;;;;;;4983185;28;20576;-58
2023/10/02 07:18:12;;;;;;;7.00;2.17;;;;;;;;;;4982018;28;20035;-58
2023/10/02 07:20:42;;;;;;;5.85;2.50;;;;;;;;;;4982188;28;20041;-58
2023/10/02 07:23:13;;;;;;;5.60;2.60;;;;;;;;;;4971759;28;20058;-58
2023/10/02 07:25:38;;;;;;;5.85;2.75;;;;;;;;;;4964922;28;20059;-58
2023/10/02 07:28:05;;;;;;;5.68;2.58;;;;;;;;;;4983650;28;20486;-59
2023/10/02 07:30:30;;;;;;;6.50;2.55;;;;;;;;;;4984904;28;20522;-60
2023/10/02 07:33:03;;;;;;;6.57;2.63;;;;;;;;;;4978351;28;20073;-59
2023/10/02 07:35:28;;;;;;;4.53;2.05;;;;;;;;;;4976249;28;20070;-58
2023/10/02 07:37:59;;;;;;;5.43;2.42;;;;;;;;;;4981955;28;20147;-60
2023/10/02 07:40:46;;;;;;;5.10;2.88;;;;;;;;;;4978059;28;20340;-61
2023/10/02 07:43:12;;;;;;;5.82;2.72;;;;;;;;;;4971031;28;20078;-58
2023/10/02 07:45:37;;;;;;;4.18;2.60;;;;;;;;;;4982798;28;20058;-61
2023/10/02 07:48:08;;;;;;;5.93;2.40;;;;;;;;;;4976407;28;20065;-61
2023/10/02 07:50:38;;;;;;;5.57;2.40;;;;;;;;;;4981974;28;20276;-60
2023/10/02 07:53:06;;;;;;;7.35;2.90;;;;;;;;;;4992859;28;20067;-60
2023/10/02 07:55:43;;;;;;;5.85;2.67;;;;;;;;;;4972364;28;20154;-59
2023/10/02 07:58:13;;;;;;;6.80;2.60;;;;;;;;;;4966199;28;20030;-60
2023/10/02 08:00:40;;;;;;;6.97;2.35;;;;;;;;;;4976865;28;20030;-63
2023/10/02 08:03:29;;;;;;;5.90;2.47;;;;;;;;;;4961338;28;20155;-61
2023/10/02 08:05:51;;;;;;;5.97;2.40;;;;;;;;;;4955812;28;20043;-61
2023/10/02 08:08:18;;;;;;;4.30;2.43;;;;;;;;;;4965314;28;20060;-60
2023/10/02 08:10:50;;;;;;;6.20;3.13;;;;;;;;;;4969465;28;20954;-59
2023/10/02 08:13:32;;;;;;;5.93;2.50;;;;;;;;;;4970247;28;21060;-60
2023/10/02 08:15:58;;;;;;;4.93;2.50;;;;;;;;;;4962802;28;20050;-61
2023/10/02 08:18:24;;;;;;;5.45;2.40;;;;;;;;;;4979643;28;20568;-60
2023/10/02 08:20:50;;;;;;;5.88;2.72;;;;;;;;;;4984344;28;20042;-62
2023/10/02 08:23:21;;;;;;;4.72;2.50;;;;;;;;;;4985134;28;20042;-59
2023/10/02 08:26:02;;;;;;;5.68;2.60;;;;;;;;;;4980606;28;20047;-60
2023/10/02 08:28:33;;;;;;;5.43;2.38;;;;;;;;;;4980489;28;20030;-60
2023/10/02 08:31:01;;;;;;;6.15;2.70;;;;;;;;;;4979793;28;20122;-60
2023/10/02 08:33:27;;;;;;;5.25;2.38;;;;;;;;;;4979486;28;20030;-59
2023/10/02 08:35:52;;;;;;;6.25;2.60;;;;;;;;;;4984980;28;20053;-60
2023/10/02 08:38:25;;;;;;;4.77;2.43;;;;;;;;;;4984277;28;20088;-61
2023/10/02 08:40:57;;;;;;;6.35;2.38;;;;;;;;;;4980009;28;20306;-64
2023/10/02 08:43:25;;;;;;;4.90;2.33;;;;;;;;;;4984750;28;20070;-59
2023/10/02 08:45:50;;;;;;;7.28;2.47;;;;;;;;;;4983051;28;20081;-60
2023/10/02 08:48:19;;;;;;;3.97;2.27;;;;;;;;;;4985276;28;20022;-60
2023/10/02 08:50:47;;;;;;;5.68;2.38;;;;;;;;;;4988940;28;20278;-59
2023/10/02 08:53:19;;;;;;;6.35;2.45;;;;;;;;;;4985316;28;20084;-61
2023/10/02 08:58:16;;;;;;;9.27;2.50;;;;;;;;;;4984986;28;20453;-58
2023/10/02 09:03:41;;;;;;;5.63;2.78;;;;;;;;;;4984745;28;20140;-60
2023/10/02 09:09:12;;;;;;;4.38;2.28;;;;;;;;;;4975417;28;20178;-60
2023/10/02 09:11:39;;;;;;;5.60;2.95;;;;;;;;;;4982701;28;20534;-58
2023/10/02 09:14:21;;;;;;;4.97;2.20;;;;;;;;;;4979651;28;20035;-58
2023/10/02 09:19:37;;;;;;;7.35;3.00;;;;;;;;;;4972988;28;20064;-59
2023/10/02 09:22:12;;;;;;;5.10;2.50;;;;;;;;;;4974523;28;20502;-60
2023/10/02 09:24:40;;;;;;;5.50;2.88;;;;;;;;;;4972809;28;20022;-59
2023/10/02 09:27:25;;;;;;;7.93;2.95;;;;;;;;;;4973584;28;20514;-60
2023/10/02 09:32:47;;;;;;;5.82;1.95;;;;;;;;;;4971185;28;20059;-63
2023/10/02 09:35:21;;;;;;;4.75;2.22;;;;;;;;;;4971999;28;20134;-61
2023/10/02 09:37:49;;;;;;;7.68;3.47;;;;;;;;;;4970845;28;20058;-62
2023/10/02 09:40:15;;;;;;;7.50;2.78;;;;;;;;;;4976664;28;20182;-62
2023/10/02 09:42:45;;;;;;;7.47;2.75;;;;;;;;;;4970126;28;20094;-61
2023/10/02 09:45:11;;;;;;;5.78;2.83;;;;;;;;;;4980304;28;20058;-61
2023/10/02 09:47:36;;;;;;;7.78;3.05;;;;;;;;;;4974767;28;20078;-59
2023/10/02 09:50:12;;;;;;;8.95;2.80;;;;;;;;;;4980147;28;20125;-60
2023/10/02 09:52:39;;;;;;;7.63;3.00;;;;;;;;;;4954901;28;20047;-62
2023/10/02 09:55:07;;;;;;;7.35;2.67;;;;;;;;;;4956172;28;20499;-60
2023/10/02 09:57:40;;;;;;;5.38;2.70;;;;;;;;;;4970153;28;20090;-60
2023/10/02 10:00:34;;;;;;;4.38;2.50;;;;;;;;;;4973887;28;20046;-62
2023/10/02 10:03:14;;;;;;;7.13;3.20;;;;;;;;;;4974749;28;20112;-62
2023/10/02 10:06:05;;;;;;;5.05;2.58;;;;;;;;;;4972203;28;20105;-61
2023/10/02 10:09:18;;;;;;;6.63;2.88;;;;;;;;;;4975847;28;20039;-62
2023/10/02 10:11:34;;;;;;;4.90;2.83;;;;;;;;;;4974703;28;20065;-61
2023/10/02 10:13:59;;;;;;;5.50;2.60;;;;;;;;;;4975654;28;20038;-62
2023/10/02 10:16:33;;;;;;;5.95;2.80;;;;;;;;;;4974474;28;20058;-60
2023/10/02 10:21:54;;;;;;;6.70;2.83;;;;;;;;;;4974832;28;20170;-64
2023/10/02 10:24:32;;;;;;;6.20;2.72;;;;;;;;;;4974152;28;20502;-60
2023/10/02 10:26:57;;;;;;;6.13;2.92;;;;;;;;;;4970827;28;20043;-61
2023/10/02 10:29:41;;;;;;;6.55;3.13;;;;;;;;;;4974428;28;20411;-62
2023/10/02 10:32:19;;;;;;;7.05;3.05;;;;;;;;;;4971689;28;20042;-60
2023/10/02 10:35:11;;;;;;;5.85;3.13;;;;;;;;;;4973142;28;20089;-60
2023/10/02 10:37:46;;;;;;;5.72;2.72;;;;;;;;;;4974619;28;20061;-60
2023/10/02 10:40:43;;;;;;;6.72;3.15;;;;;;;;;;4974791;28;20735;-62
2023/10/02 10:43:12;;;;;;;7.25;3.13;;;;;;;;;;4993406;28;20460;-62
2023/10/02 10:45:39;;;;;;;6.07;3.30;;;;;;;;;;4993854;28;20049;-61
2023/10/02 10:48:16;;;;;;;7.03;3.30;;;;;;;;;;4969961;28;20058;-62
2023/10/02 10:50:48;;;;;;;5.90;2.90;;;;;;;;;;4969166;28;20412;-63
2023/10/02 10:53:29;;;;;;;6.07;3.40;;;;;;;;;;4977294;28;20090;-62
2023/10/02 10:56:16;;;;;;;5.50;2.80;;;;;;;;;;4979374;28;20046;-62
2023/10/02 10:58:43;;;;;;;6.97;3.10;;;;;;;;;;4982303;28;20124;-61
2023/10/02 11:01:13;;;;;;;5.10;2.92;;;;;;;;;;4973938;28;20015;-60
2023/10/02 11:03:38;;;;;;;7.38;3.08;;;;;;;;;;4957748;28;20030;-60
2023/10/02 11:06:04;;;;;;;6.25;2.80;;;;;;;;;;4971901;28;20034;-66
2023/10/02 11:08:30;;;;;;;6.93;3.47;;;;;;;;;;4975760;28;20030;-61
2023/10/02 11:11:01;;;;;;;7.93;3.42;;;;;;;;;;4971388;28;20023;-63
2023/10/02 11:13:28;;;;;;;5.78;2.95;;;;;;;;;;4973088;28;20034;-62
2023/10/02 11:16:08;;;;;;;5.63;2.78;;;;;;;;;;4974814;28;20049;-62
2023/10/02 11:18:38;;;;;;;5.90;3.30;;;;;;;;;;4956159;28;20043;-60
2023/10/02 11:21:09;;;;;;;6.00;3.47;;;;;;;;;;4970296;28;20080;-62
2023/10/02 11:23:48;;;;;;;6.82;3.15;;;;;;;;;;4963828;28;20114;-63
2023/10/02 11:26:13;;;;;;;7.18;3.60;;;;;;;;;;4976973;28;20045;-60
2023/10/02 11:28:42;;;;;;;6.22;3.67;;;;;;;;;;4975932;28;20128;-62
2023/10/02 11:31:11;;;;;;;6.43;3.42;;;;;;;;;;4971310;28;20072;-61
2023/10/02 11:33:40;;;;;;;6.45;2.95;;;;;;;;;;4973148;28;20141;-60
2023/10/02 11:36:11;;;;;;;6.10;3.35;;;;;;;;;;4973547;28;20133;-61
2023/10/02 11:38:37;;;;;;;8.30;3.60;;;;;;;;;;4975077;28;20074;-61
2023/10/02 11:41:04;;;;;;;6.07;3.30;;;;;;;;;;4974404;28;20471;-61
2023/10/02 11:43:29;;;;;;;8.65;3.58;;;;;;;;;;4973505;28;20049;-61
2023/10/02 11:45:55;;;;;;;7.45;3.50;;;;;;;;;;4972061;28;20042;-60
2023/10/02 11:48:20;;;;;;;6.85;3.28;;;;;;;;;;4975398;28;20042;-60
2023/10/02 11:50:46;;;;;;;6.53;3.10;;;;;;;;;;4973727;28;20061;-61
2023/10/02 11:53:12;;;;;;;5.47;3.05;;;;;;;;;;4971596;28;20853;-63
2023/10/02 11:55:37;;;;;;;6.38;3.20;;;;;;;;;;4971012;28;20054;-59
2023/10/02 11:58:04;;;;;;;6.18;3.40;;;;;;;;;;4972351;28;20043;-61
2023/10/02 12:00:29;;;;;;;7.43;3.13;;;;;;;;;;4971271;28;20526;-60
2023/10/02 12:02:56;;;;;;;7.20;3.53;;;;;;;;;;4970392;28;20030;-59
2023/10/02 12:05:22;;;;;;;6.93;3.53;;;;;;;;;;4975221;28;20121;-63
2023/10/02 12:07:48;;;;;;;6.95;3.70;;;;;;;;;;4972007;28;20046;-62
2023/10/02 12:10:15;;;;;;;7.18;3.42;;;;;;;;;;4971029;28;20442;-60
2023/10/02 12:12:41;;;;;;;7.18;3.65;;;;;;;;;;4970973;28;20057;-59
2023/10/02 12:15:07;;;;;;;6.65;3.53;;;;;;;;;;4968156;28;20031;-64
2023/10/02 12:17:32;;;;;;;6.85;3.42;;;;;;;;;;4955547;28;20058;-59
2023/10/02 12:19:58;;;;;;;6.43;3.33;;;;;;;;;;4979509;28;20396;-60
2023/10/02 12:22:26;;;;;;;6.93;3.47;;;;;;;;;;4981337;28;20377;-62
2023/10/02 12:24:51;;;;;;;6.28;3.47;;;;;;;;;;4979351;28;20045;-61
2023/10/02 12:27:18;;;;;;;7.90;3.42;;;;;;;;;;4985814;28;20031;-60
2023/10/02 12:29:43;;;;;;;6.50;3.45;;;;;;;;;;4986239;28;20038;-60
2023/10/02 12:32:09;;;;;;;6.97;3.58;;;;;;;;;;4981393;28;20912;-60
2023/10/02 12:34:35;;;;;;;8.35;3.35;;;;;;;;;;4978654;28;20086;-60
2023/10/02 12:37:00;;;;;;;6.15;3.30;;;;;;;;;;4988080;28;20434;-61
2023/10/02 12:39:28;;;;;;;6.72;3.35;;;;;;;;;;4988071;28;20530;-61
2023/10/02 12:41:54;;;;;;;7.97;3.35;;;;;;;;;;4985676;28;20547;-60
2023/10/02 12:44:19;;;;;;;7.20;4.00;;;;;;;;;;5001254;28;20173;-62
2023/10/02 12:46:48;;;;;;;6.50;3.47;;;;;;;;;;4985449;28;20476;-63
2023/10/02 12:49:14;;;;;;;8.10;4.05;;;;;;;;;;4980419;28;20097;-62
2023/10/02 12:51:40;;;;;;;8.00;3.70;;;;;;;;;;4975193;28;20034;-63
2023/10/02 12:54:05;;;;;;;5.88;3.60;;;;;;;;;;4967780;28;20479;-63
2023/10/02 12:56:30;;;;;;;8.38;3.90;;;;;;;;;;4985284;28;20137;-64
2023/10/02 12:58:56;;;;;;;8.73;4.20;;;;;;;;;;4985585;28;20471;-61
2023/10/02 13:01:27;;;;;;;7.30;4.40;;;;;;;;;;4979634;28;20357;-61
2023/10/02 13:03:52;;;;;;;8.38;3.92;;;;;;;;;;4980519;28;20317;-63
2023/10/02 13:06:17;;;;;;;7.57;3.78;;;;;;;;;;4986043;28;20066;-62
2023/10/02 13:08:43;;;;;;;7.18;3.78;;;;;;;;;;4983644;28;20113;-62
2023/10/02 13:11:18;;;;;;;7.65;3.42;;;;;;;;;;4982777;28;20054;-62
2023/10/02 13:13:44;;;;;;;8.13;4.35;;;;;;;;;;4985054;28;20508;-62
2023/10/02 13:16:11;;;;;;;8.48;4.25;;;;;;;;;;4984962;28;20065;-62
2023/10/02 13:18:37;;;;;;;8.20;3.67;;;;;;;;;;4991214;28;20043;-60
2023/10/02 13:21:03;;;;;;;7.40;3.97;;;;;;;;;;4986258;28;20034;-60
2023/10/02 13:23:28;;;;;;;7.43;3.58;;;;;;;;;;4987532;28;20030;-59
2023/10/02 13:25:54;;;;;;;7.00;3.78;;;;;;;;;;4987703;28;20038;-60
2023/10/02 13:28:20;;;;;;;8.07;3.97;;;;;;;;;;4985742;28;20152;-60
2023/10/02 13:30:45;;;;;;;7.55;4.22;;;;;;;;;;5003197;28;20434;-59
2023/10/02 13:33:10;;;;;;;6.28;3.88;;;;;;;;;;4971003;28;20109;-61
2023/10/02 13:35:44;;;;;;;8.97;4.03;;;;;;;;;;4988133;28;20030;-60
2023/10/02 13:38:10;;;;;;;7.25;3.85;;;;;;;;;;4995723;28;20604;-59
2023/10/02 13:40:37;;;;;;;6.93;3.60;;;;;;;;;;4997226;28;20022;-59
2023/10/02 13:43:05;;;;;;;6.70;3.50;;;;;;;;;;4979648;28;20022;-60
2023/10/02 13:45:31;;;;;;;7.68;3.78;;;;;;;;;;5002543;28;20018;-58
2023/10/02 13:47:56;;;;;;;8.88;3.63;;;;;;;;;;4987605;28;20033;-59
2023/10/02 13:50:22;;;;;;;7.13;3.45;;;;;;;;;;4987077;28;20069;-62
2023/10/02 13:52:51;;;;;;;7.18;3.63;;;;;;;;;;4986979;28;20491;-59
2023/10/02 13:55:19;;;;;;;9.10;3.47;;;;;;;;;;4986810;28;20014;-59
2023/10/02 13:57:47;;;;;;;7.47;3.70;;;;;;;;;;4986548;28;20034;-60
2023/10/02 14:00:17;;;;;;;6.97;3.17;;;;;;;;;;4988110;28;20049;-60
2023/10/02 14:02:42;;;;;;;7.28;3.80;;;;;;;;;;4981991;28;20041;-60
2023/10/02 14:05:07;;;;;;;6.20;3.28;;;;;;;;;;4987786;28;20034;-59
2023/10/02 14:07:36;;;;;;;7.28;3.85;;;;;;;;;;4984158;28;20043;-59
2023/10/02 14:10:03;;;;;;;6.97;3.33;;;;;;;;;;4971888;28;20043;-60
2023/10/02 14:12:29;;;;;;;6.88;3.40;;;;;;;;;;4988111;28;20038;-59
2023/10/02 14:14:54;;;;;;;7.55;4.05;;;;;;;;;;4987223;28;20076;-59
2023/10/02 14:17:19;;;;;;;7.22;3.65;;;;;;;;;;4988966;28;20476;-60
2023/10/02 14:19:45;;;;;;;6.50;3.30;;;;;;;;;;4988053;28;20057;-59
2023/10/02 14:22:12;;;;;;;7.07;3.70;;;;;;;;;;4987588;28;20057;-59
2023/10/02 14:24:37;;;;;;;7.43;3.42;;;;;;;;;;4985839;28;20042;-60
2023/10/02 14:27:03;;;;;;;8.30;3.78;;;;;;;;;;4988301;28;20396;-62
2023/10/02 14:29:28;;;;;;;8.23;3.97;;;;;;;;;;4987499;28;20141;-59
2023/10/02 14:31:53;;;;;;;8.13;3.92;;;;;;;;;;4987496;28;20132;-58
2023/10/02 14:34:21;;;;;;;7.97;4.23;;;;;;;;;;4986921;28;20529;-61
2023/10/02 14:36:46;;;;;;;8.40;4.35;;;;;;;;;;4986137;28;20396;-59
2023/10/02 14:39:15;;;;;;;8.32;4.25;;;;;;;;;;4986165;28;20152;-60
2023/10/02 14:41:41;;;;;;;7.83;4.20;;;;;;;;;;4985478;28;20290;-63
2023/10/02 14:44:06;;;;;;;6.78;3.60;;;;;;;;;;4986863;28;20274;-61
2023/10/02 14:46:31;;;;;;;7.75;3.60;;;;;;;;;;4985071;28;20034;-60
2023/10/02 14:48:57;;;;;;;7.47;3.53;;;;;;;;;;4986504;28;20034;-58
2023/10/02 14:51:22;;;;;;;8.18;4.22;;;;;;;;;;4986515;28;20035;-59
2023/10/02 14:53:48;;;;;;;6.90;3.70;;;;;;;;;;4987496;28;20510;-59
2023/10/02 14:56:13;;;;;;;6.50;3.65;;;;;;;;;;4984929;28;20090;-58
2023/10/02 14:58:46;;;;;;;6.85;3.65;;;;;;;;;;4986451;28;20122;-60
2023/10/02 15:01:12;;;;;;;7.57;4.40;;;;;;;;;;4969154;28;20158;-61
2023/10/02 15:03:37;;;;;;;6.32;3.67;;;;;;;;;;4985662;28;20067;-59
2023/10/02 15:06:03;;;;;;;8.73;3.97;;;;;;;;;;4985804;28;20423;-60
2023/10/02 15:08:33;;;;;;;12.48;4.63;;;;;;;;;;4986546;28;20066;-62
2023/10/02 15:10:58;;;;;;;7.10;3.72;;;;;;;;;;4985502;28;20045;-59
2023/10/02 15:13:25;;;;;;;8.55;4.68;;;;;;;;;;4982063;28;20046;-61
2023/10/02 15:15:51;;;;;;;6.47;3.97;;;;;;;;;;4985896;28;20093;-60
2023/10/02 15:18:16;;;;;;;7.82;4.25;;;;;;;;;;4986467;28;20046;-59
2023/10/02 15:20:43;;;;;;;7.30;4.00;;;;;;;;;;4986684;28;20039;-60
2023/10/02 15:23:08;;;;;;;7.32;3.90;;;;;;;;;;4980791;28;20045;-60
2023/10/02 15:25:35;;;;;;;8.32;4.55;;;;;;;;;;4985284;28;20042;-62
2023/10/02 15:28:00;;;;;;;6.18;3.92;;;;;;;;;;4978528;28;20043;-61
2023/10/02 15:30:25;;;;;;;7.18;4.22;;;;;;;;;;4975152;28;20101;-59
2023/10/02 15:32:53;;;;;;;9.25;4.25;;;;;;;;;;4966096;28;20518;-61
2023/10/02 15:35:20;;;;;;;7.10;4.22;;;;;;;;;;4979151;28;20034;-60